sensor_id;sensor_type;location;lat;lon;timestamp;pressure;altitude;pressure_sealevel;temperature;humidity
23953;BME280;12163;49.316;6.092;2023-08-08T00:00:25;99540.88;;;16.12;67.90
23953;BME280;12163;49.316;6.092;2023-08-08T00:02:52;99535.31;;;16.00;67.90
23953;BME280;12163;49.316;6.092;2023-08-08T00:05:19;99548.44;;;15.90;68.74
23953;BME280;12163;49.316;6.092;2023-08-08T00:07:45;99540.25;;;15.81;69.50
23953;BME280;12163;49.316;6.092;2023-08-08T00:10:12;99541.03;;;15.73;69.92
23953;BME280;12163;49.316;6.092;2023-08-08T00:12:39;99539.13;;;15.65;70.36
23953;BME280;12163;49.316;6.092;2023-08-08T00:15:06;99542.63;;;15.57;70.40
23953;BME280;12163;49.316;6.092;2023-08-08T00:17:32;99554.75;;;15.51;71.32
23953;BME280;12163;49.316;6.092;2023-08-08T00:19:59;99545.50;;;15.44;71.61
23953;BME280;12163;49.316;6.092;2023-08-08T00:22:26;99543.53;;;15.36;71.88
23953;BME280;12163;49.316;6.092;2023-08-08T00:24:52;99540.97;;;15.31;72.49
23953;BME280;12163;49.316;6.092;2023-08-08T00:27:19;99549.25;;;15.26;72.63
23953;BME280;12163;49.316;6.092;2023-08-08T00:29:46;99538.19;;;15.22;72.84
23953;BME280;12163;49.316;6.092;2023-08-08T00:32:12;99553.72;;;15.22;73.34
23953;BME280;12163;49.316;6.092;2023-08-08T00:34:39;99543.78;;;15.18;73.12
23953;BME280;12163;49.316;6.092;2023-08-08T00:37:06;99544.41;;;15.15;73.64
23953;BME280;12163;49.316;6.092;2023-08-08T00:39:32;99546.16;;;15.11;73.42
23953;BME280;12163;49.316;6.092;2023-08-08T00:41:59;99546.75;;;15.08;73.22
23953;BME280;12163;49.316;6.092;2023-08-08T00:44:26;99538.75;;;15.03;73.52
23953;BME280;12163;49.316;6.092;2023-08-08T00:46:53;99540.97;;;15.01;73.71
23953;BME280;12163;49.316;6.092;2023-08-08T00:49:20;99533.47;;;14.98;73.55
23953;BME280;12163;49.316;6.092;2023-08-08T00:51:47;99539.19;;;14.96;74.03
23953;BME280;12163;49.316;6.092;2023-08-08T00:54:14;99525.47;;;14.93;74.13
23953;BME280;12163;49.316;6.092;2023-08-08T00:56:41;99534.25;;;14.90;74.07
23953;BME280;12163;49.316;6.092;2023-08-08T00:59:08;99531.63;;;14.85;74.07
23953;BME280;12163;49.316;6.092;2023-08-08T01:01:38;99534.50;;;14.80;74.45
23953;BME280;12163;49.316;6.092;2023-08-08T01:04:04;99529.69;;;14.77;73.96
23953;BME280;12163;49.316;6.092;2023-08-08T01:06:51;99531.09;;;14.74;74.27
23953;BME280;12163;49.316;6.092;2023-08-08T01:09:23;99529.84;;;14.72;74.26
23953;BME280;12163;49.316;6.092;2023-08-08T01:11:53;99529.97;;;14.67;74.83
23953;BME280;12163;49.316;6.092;2023-08-08T01:14:21;99514.91;;;14.61;74.41
23953;BME280;12163;49.316;6.092;2023-08-08T01:16:52;99521.78;;;14.58;74.91
23953;BME280;12163;49.316;6.092;2023-08-08T01:19:27;99522.22;;;14.52;74.95
23953;BME280;12163;49.316;6.092;2023-08-08T01:22:00;99525.84;;;14.47;74.93
23953;BME280;12163;49.316;6.092;2023-08-08T01:24:28;99524.09;;;14.43;74.79
23953;BME280;12163;49.316;6.092;2023-08-08T01:26:56;99532.34;;;14.38;74.96
23953;BME280;12163;49.316;6.092;2023-08-08T01:29:23;99532.78;;;14.31;75.46
23953;BME280;12163;49.316;6.092;2023-08-08T01:31:50;99535.63;;;14.26;75.91
23953;BME280;12163;49.316;6.092;2023-08-08T01:34:17;99532.25;;;14.21;75.71
23953;BME280;12163;49.316;6.092;2023-08-08T01:37:03;99534.53;;;14.14;76.13
23953;BME280;12163;49.316;6.092;2023-08-08T01:39:33;99542.19;;;14.12;76.17
23953;BME280;12163;49.316;6.092;2023-08-08T01:42:01;99538.63;;;14.03;76.31
23953;BME280;12163;49.316;6.092;2023-08-08T01:44:30;99540.94;;;13.96;76.94
23953;BME280;12163;49.316;6.092;2023-08-08T01:46:59;99545.38;;;13.92;77.13
23953;BME280;12163;49.316;6.092;2023-08-08T01:49:25;99540.09;;;13.87;77.00
23953;BME280;12163;49.316;6.092;2023-08-08T01:51:52;99541.00;;;13.82;77.15
23953;BME280;12163;49.316;6.092;2023-08-08T01:54:19;99536.69;;;13.81;77.47
23953;BME280;12163;49.316;6.092;2023-08-08T01:56:46;99535.41;;;13.79;77.80
23953;BME280;12163;49.316;6.092;2023-08-08T01:59:12;99538.41;;;13.77;78.10
23953;BME280;12163;49.316;6.092;2023-08-08T02:01:41;99540.81;;;13.79;77.87
23953;BME280;12163;49.316;6.092;2023-08-08T02:04:08;99538.59;;;13.81;77.04
23953;BME280;12163;49.316;6.092;2023-08-08T02:06:35;99538.91;;;13.79;77.79
23953;BME280;12163;49.316;6.092;2023-08-08T02:09:01;99549.25;;;13.77;77.68
23953;BME280;12163;49.316;6.092;2023-08-08T02:11:28;99544.44;;;13.74;77.33
23953;BME280;12163;49.316;6.092;2023-08-08T02:13:54;99549.16;;;13.69;77.65
23953;BME280;12163;49.316;6.092;2023-08-08T02:16:21;99550.88;;;13.65;78.09
23953;BME280;12163;49.316;6.092;2023-08-08T02:18:48;99547.69;;;13.63;77.99
23953;BME280;12163;49.316;6.092;2023-08-08T02:21:14;99546.69;;;13.59;78.26
23953;BME280;12163;49.316;6.092;2023-08-08T02:23:41;99543.56;;;13.52;77.54
23953;BME280;12163;49.316;6.092;2023-08-08T02:26:08;99553.13;;;13.49;77.87
23953;BME280;12163;49.316;6.092;2023-08-08T02:28:34;99545.41;;;13.43;78.73
23953;BME280;12163;49.316;6.092;2023-08-08T02:31:01;99544.91;;;13.41;78.70
23953;BME280;12163;49.316;6.092;2023-08-08T02:33:28;99545.53;;;13.38;78.28
23953;BME280;12163;49.316;6.092;2023-08-08T02:35:54;99539.09;;;13.34;78.64
23953;BME280;12163;49.316;6.092;2023-08-08T02:38:21;99553.75;;;13.33;78.62
23953;BME280;12163;49.316;6.092;2023-08-08T02:40:48;99546.75;;;13.32;79.48
23953;BME280;12163;49.316;6.092;2023-08-08T02:43:14;99550.53;;;13.31;78.92
23953;BME280;12163;49.316;6.092;2023-08-08T02:45:41;99548.44;;;13.28;79.04
23953;BME280;12163;49.316;6.092;2023-08-08T02:48:07;99547.94;;;13.26;78.92
23953;BME280;12163;49.316;6.092;2023-08-08T02:50:34;99550.97;;;13.25;79.05
23953;BME280;12163;49.316;6.092;2023-08-08T02:53:01;99545.03;;;13.23;79.81
23953;BME280;12163;49.316;6.092;2023-08-08T02:55:28;99541.50;;;13.22;79.22
23953;BME280;12163;49.316;6.092;2023-08-08T02:57:54;99551.84;;;13.20;79.73
23953;BME280;12163;49.316;6.092;2023-08-08T03:00:21;99544.50;;;13.21;79.48
23953;BME280;12163;49.316;6.092;2023-08-08T03:02:47;99542.91;;;13.20;79.25
23953;BME280;12163;49.316;6.092;2023-08-08T03:05:14;99539.41;;;13.19;79.54
23953;BME280;12163;49.316;6.092;2023-08-08T03:07:41;99539.91;;;13.21;80.14
23953;BME280;12163;49.316;6.092;2023-08-08T03:10:08;99542.63;;;13.21;79.35
23953;BME280;12163;49.316;6.092;2023-08-08T03:12:35;99543.13;;;13.23;79.52
23953;BME280;12163;49.316;6.092;2023-08-08T03:15:02;99541.50;;;13.22;79.27
23953;BME280;12163;49.316;6.092;2023-08-08T03:17:29;99533.38;;;13.22;79.31
23953;BME280;12163;49.316;6.092;2023-08-08T03:19:55;99534.00;;;13.19;79.63
23953;BME280;12163;49.316;6.092;2023-08-08T03:22:22;99528.84;;;13.18;79.01
23953;BME280;12163;49.316;6.092;2023-08-08T03:24:49;99531.69;;;13.13;79.61
23953;BME280;12163;49.316;6.092;2023-08-08T03:27:15;99540.41;;;13.10;79.17
23953;BME280;12163;49.316;6.092;2023-08-08T03:29:42;99529.38;;;13.06;79.60
23953;BME280;12163;49.316;6.092;2023-08-08T03:32:09;99527.75;;;13.05;79.31
23953;BME280;12163;49.316;6.092;2023-08-08T03:34:35;99537.00;;;13.04;79.99
23953;BME280;12163;49.316;6.092;2023-08-08T03:37:02;99536.00;;;13.00;80.11
23953;BME280;12163;49.316;6.092;2023-08-08T03:39:29;99531.19;;;12.97;80.27
23953;BME280;12163;49.316;6.092;2023-08-08T03:41:55;99534.50;;;12.94;80.25
23953;BME280;12163;49.316;6.092;2023-08-08T03:44:23;99538.00;;;12.95;79.62
23953;BME280;12163;49.316;6.092;2023-08-08T03:46:49;99533.28;;;13.00;80.57
23953;BME280;12163;49.316;6.092;2023-08-08T03:49:20;99530.69;;;13.09;80.20
23953;BME280;12163;49.316;6.092;2023-08-08T03:51:47;99532.28;;;13.23;80.16
23953;BME280;12163;49.316;6.092;2023-08-08T03:54:15;99530.47;;;13.32;79.19
23953;BME280;12163;49.316;6.092;2023-08-08T03:56:42;99529.25;;;13.38;78.94
23953;BME280;12163;49.316;6.092;2023-08-08T03:59:09;99536.47;;;13.43;78.66
23953;BME280;12163;49.316;6.092;2023-08-08T04:01:36;99532.84;;;13.47;78.28
23953;BME280;12163;49.316;6.092;2023-08-08T04:04:04;99531.44;;;13.49;77.98
23953;BME280;12163;49.316;6.092;2023-08-08T04:06:31;99530.84;;;13.52;78.14
23953;BME280;12163;49.316;6.092;2023-08-08T04:08:58;99530.72;;;13.57;77.31
23953;BME280;12163;49.316;6.092;2023-08-08T04:11:27;99528.22;;;13.61;77.57
23953;BME280;12163;49.316;6.092;2023-08-08T04:13:53;99518.16;;;13.61;77.46
23953;BME280;12163;49.316;6.092;2023-08-08T04:16:20;99526.59;;;13.60;77.33
23953;BME280;12163;49.316;6.092;2023-08-08T04:18:47;99532.81;;;13.60;76.86
23953;BME280;12163;49.316;6.092;2023-08-08T04:21:13;99529.59;;;13.58;77.38
23953;BME280;12163;49.316;6.092;2023-08-08T04:23:40;99524.19;;;13.58;77.57
23953;BME280;12163;49.316;6.092;2023-08-08T04:26:06;99521.19;;;13.60;77.12
23953;BME280;12163;49.316;6.092;2023-08-08T04:28:33;99520.56;;;13.63;77.43
23953;BME280;12163;49.316;6.092;2023-08-08T04:30:59;99531.63;;;13.66;76.80
23953;BME280;12163;49.316;6.092;2023-08-08T04:33:26;99528.59;;;13.68;77.13
23953;BME280;12163;49.316;6.092;2023-08-08T04:35:53;99529.69;;;13.67;76.48
23953;BME280;12163;49.316;6.092;2023-08-08T04:38:22;99518.56;;;13.68;77.02
23953;BME280;12163;49.316;6.092;2023-08-08T04:40:49;99519.34;;;13.69;76.82
23953;BME280;12163;49.316;6.092;2023-08-08T04:43:15;99530.19;;;13.69;77.12
23953;BME280;12163;49.316;6.092;2023-08-08T04:45:42;99528.28;;;13.69;76.39
23953;BME280;12163;49.316;6.092;2023-08-08T04:48:09;99529.97;;;13.79;76.92
23953;BME280;12163;49.316;6.092;2023-08-08T04:50:35;99526.50;;;14.22;77.79
23953;BME280;12163;49.316;6.092;2023-08-08T04:53:02;99524.16;;;14.60;76.07
23953;BME280;12163;49.316;6.092;2023-08-08T04:55:29;99527.69;;;14.91;74.73
23953;BME280;12163;49.316;6.092;2023-08-08T04:57:55;99523.41;;;15.07;72.90
23953;BME280;12163;49.316;6.092;2023-08-08T05:00:22;99529.47;;;15.04;72.22
23953;BME280;12163;49.316;6.092;2023-08-08T05:02:49;99528.09;;;15.15;72.32
23953;BME280;12163;49.316;6.092;2023-08-08T05:05:15;99522.84;;;15.26;71.23
23953;BME280;12163;49.316;6.092;2023-08-08T05:07:42;99518.72;;;15.29;70.47
23953;BME280;12163;49.316;6.092;2023-08-08T05:10:09;99522.41;;;15.33;70.26
23953;BME280;12163;49.316;6.092;2023-08-08T05:12:35;99517.41;;;15.26;69.59
23953;BME280;12163;49.316;6.092;2023-08-08T05:15:02;99528.13;;;15.23;70.20
23953;BME280;12163;49.316;6.092;2023-08-08T05:17:30;99519.16;;;15.22;70.12
23953;BME280;12163;49.316;6.092;2023-08-08T05:19:58;99517.06;;;15.19;69.75
23953;BME280;12163;49.316;6.092;2023-08-08T05:22:24;99508.44;;;15.18;69.17
23953;BME280;12163;49.316;6.092;2023-08-08T05:24:51;99521.69;;;15.19;69.92
23953;BME280;12163;49.316;6.092;2023-08-08T05:27:18;99524.44;;;15.27;69.68
23953;BME280;12163;49.316;6.092;2023-08-08T05:29:45;99522.66;;;15.15;69.47
23953;BME280;12163;49.316;6.092;2023-08-08T05:32:12;99521.34;;;15.04;70.02
23953;BME280;12163;49.316;6.092;2023-08-08T05:34:38;99519.25;;;15.01;70.02
23953;BME280;12163;49.316;6.092;2023-08-08T05:37:05;99524.88;;;15.04;70.21
23953;BME280;12163;49.316;6.092;2023-08-08T05:39:43;99521.22;;;15.17;70.69
23953;BME280;12163;49.316;6.092;2023-08-08T05:42:10;99521.78;;;15.36;69.70
23953;BME280;12163;49.316;6.092;2023-08-08T05:44:37;99528.69;;;15.50;68.90
23953;BME280;12163;49.316;6.092;2023-08-08T05:47:04;99533.84;;;15.60;67.92
23953;BME280;12163;49.316;6.092;2023-08-08T05:49:31;99525.53;;;15.74;68.08
23953;BME280;12163;49.316;6.092;2023-08-08T05:51:57;99528.88;;;15.71;67.93
23953;BME280;12163;49.316;6.092;2023-08-08T05:54:24;99529.66;;;15.71;67.64
23953;BME280;12163;49.316;6.092;2023-08-08T05:56:51;99527.44;;;15.82;67.79
23953;BME280;12163;49.316;6.092;2023-08-08T05:59:18;99524.25;;;15.88;68.08
23953;BME280;12163;49.316;6.092;2023-08-08T06:01:44;99530.66;;;15.92;67.20
23953;BME280;12163;49.316;6.092;2023-08-08T06:04:12;99529.03;;;15.91;67.13
23953;BME280;12163;49.316;6.092;2023-08-08T06:06:39;99524.72;;;15.90;67.17
23953;BME280;12163;49.316;6.092;2023-08-08T06:09:05;99533.19;;;15.97;67.38
23953;BME280;12163;49.316;6.092;2023-08-08T06:11:32;99534.00;;;16.06;67.35
23953;BME280;12163;49.316;6.092;2023-08-08T06:13:59;99527.44;;;16.07;66.92
23953;BME280;12163;49.316;6.092;2023-08-08T06:16:25;99536.09;;;16.09;66.50
23953;BME280;12163;49.316;6.092;2023-08-08T06:18:52;99525.19;;;16.09;67.11
23953;BME280;12163;49.316;6.092;2023-08-08T06:21:19;99529.84;;;16.09;66.36
23953;BME280;12163;49.316;6.092;2023-08-08T06:23:46;99537.22;;;16.00;66.38
23953;BME280;12163;49.316;6.092;2023-08-08T06:26:14;99542.16;;;15.89;67.25
23953;BME280;12163;49.316;6.092;2023-08-08T06:28:41;99541.53;;;15.92;67.16
23953;BME280;12163;49.316;6.092;2023-08-08T06:31:07;99546.31;;;15.95;67.20
23953;BME280;12163;49.316;6.092;2023-08-08T06:33:34;99543.63;;;16.04;67.52
23953;BME280;12163;49.316;6.092;2023-08-08T06:36:01;99544.44;;;16.21;66.39
23953;BME280;12163;49.316;6.092;2023-08-08T06:38:29;99545.50;;;16.29;66.63
23953;BME280;12163;49.316;6.092;2023-08-08T06:41:01;99544.91;;;16.32;65.80
23953;BME280;12163;49.316;6.092;2023-08-08T06:43:29;99546.31;;;16.29;66.35
23953;BME280;12163;49.316;6.092;2023-08-08T06:45:56;99535.75;;;16.36;65.85
23953;BME280;12163;49.316;6.092;2023-08-08T06:48:23;99546.66;;;16.36;65.53
23953;BME280;12163;49.316;6.092;2023-08-08T06:50:50;99533.22;;;16.40;66.33
23953;BME280;12163;49.316;6.092;2023-08-08T06:53:17;99541.84;;;16.50;65.41
23953;BME280;12163;49.316;6.092;2023-08-08T06:55:44;99543.25;;;16.56;65.55
23953;BME280;12163;49.316;6.092;2023-08-08T06:58:10;99542.78;;;16.63;64.98
23953;BME280;12163;49.316;6.092;2023-08-08T07:00:37;99540.22;;;16.66;64.02
23953;BME280;12163;49.316;6.092;2023-08-08T07:03:04;99552.38;;;16.69;64.53
23953;BME280;12163;49.316;6.092;2023-08-08T07:05:31;99541.28;;;16.74;64.50
23953;BME280;12163;49.316;6.092;2023-08-08T07:07:57;99533.56;;;16.84;64.53
23953;BME280;12163;49.316;6.092;2023-08-08T07:10:24;99549.00;;;17.09;63.98
23953;BME280;12163;49.316;6.092;2023-08-08T07:12:51;99536.88;;;17.35;63.98
23953;BME280;12163;49.316;6.092;2023-08-08T07:15:19;99538.06;;;17.55;62.49
23953;BME280;12163;49.316;6.092;2023-08-08T07:17:46;99535.56;;;17.70;62.67
23953;BME280;12163;49.316;6.092;2023-08-08T07:20:13;99533.44;;;17.76;61.56
23953;BME280;12163;49.316;6.092;2023-08-08T07:22:42;99544.00;;;17.57;61.75
23953;BME280;12163;49.316;6.092;2023-08-08T07:25:08;99535.97;;;17.52;62.79
23953;BME280;12163;49.316;6.092;2023-08-08T07:27:35;99530.31;;;17.65;62.89
23953;BME280;12163;49.316;6.092;2023-08-08T07:30:02;99536.81;;;17.73;61.19
23953;BME280;12163;49.316;6.092;2023-08-08T07:32:29;99542.63;;;17.71;61.39
23953;BME280;12163;49.316;6.092;2023-08-08T07:34:58;99540.91;;;17.58;62.11
23953;BME280;12163;49.316;6.092;2023-08-08T07:37:27;99538.66;;;17.60;62.56
23953;BME280;12163;49.316;6.092;2023-08-08T07:39:54;99533.16;;;17.69;62.37
23953;BME280;12163;49.316;6.092;2023-08-08T07:42:21;99533.69;;;17.83;62.23
23953;BME280;12163;49.316;6.092;2023-08-08T07:44:48;99533.50;;;17.88;61.92
23953;BME280;12163;49.316;6.092;2023-08-08T07:47:14;99541.22;;;17.86;60.42
23953;BME280;12163;49.316;6.092;2023-08-08T07:49:41;99537.28;;;17.75;60.71
23953;BME280;12163;49.316;6.092;2023-08-08T07:52:08;99533.56;;;17.79;61.08
23953;BME280;12163;49.316;6.092;2023-08-08T07:54:34;99528.69;;;17.85;61.28
23953;BME280;12163;49.316;6.092;2023-08-08T07:57:01;99516.50;;;18.03;60.24
23953;BME280;12163;49.316;6.092;2023-08-08T07:59:28;99523.56;;;18.04;59.46
23953;BME280;12163;49.316;6.092;2023-08-08T08:01:54;99512.84;;;17.99;58.06
23953;BME280;12163;49.316;6.092;2023-08-08T08:04:21;99526.50;;;17.99;58.51
23953;BME280;12163;49.316;6.092;2023-08-08T08:06:47;99527.09;;;18.04;56.91
23953;BME280;12163;49.316;6.092;2023-08-08T08:09:14;99528.41;;;18.19;57.78
23953;BME280;12163;49.316;6.092;2023-08-08T08:11:41;99528.28;;;18.36;57.17
23953;BME280;12163;49.316;6.092;2023-08-08T08:14:07;99527.19;;;18.49;57.59
23953;BME280;12163;49.316;6.092;2023-08-08T08:16:34;99527.22;;;18.61;56.62
23953;BME280;12163;49.316;6.092;2023-08-08T08:19:01;99519.16;;;18.64;54.78
23953;BME280;12163;49.316;6.092;2023-08-08T08:21:28;99517.41;;;18.60;54.74
23953;BME280;12163;49.316;6.092;2023-08-08T08:23:54;99523.94;;;18.67;55.50
23953;BME280;12163;49.316;6.092;2023-08-08T08:26:21;99522.94;;;18.72;55.37
23953;BME280;12163;49.316;6.092;2023-08-08T08:28:48;99509.63;;;18.82;54.36
23953;BME280;12163;49.316;6.092;2023-08-08T08:31:14;99515.91;;;18.94;53.78
23953;BME280;12163;49.316;6.092;2023-08-08T08:33:41;99523.28;;;18.94;53.97
23953;BME280;12163;49.316;6.092;2023-08-08T08:36:08;99514.53;;;18.88;53.49
23953;BME280;12163;49.316;6.092;2023-08-08T08:38:36;99511.78;;;18.88;54.33
23953;BME280;12163;49.316;6.092;2023-08-08T08:41:03;99527.53;;;18.91;54.15
23953;BME280;12163;49.316;6.092;2023-08-08T08:43:31;99514.75;;;18.95;53.90
23953;BME280;12163;49.316;6.092;2023-08-08T08:46:00;99523.19;;;18.90;53.63
23953;BME280;12163;49.316;6.092;2023-08-08T08:48:27;99523.75;;;18.84;53.72
23953;BME280;12163;49.316;6.092;2023-08-08T08:50:54;99514.84;;;18.87;54.27
23953;BME280;12163;49.316;6.092;2023-08-08T08:53:20;99520.22;;;18.95;52.90
23953;BME280;12163;49.316;6.092;2023-08-08T08:55:50;99524.88;;;18.95;53.17
23953;BME280;12163;49.316;6.092;2023-08-08T08:58:17;99512.47;;;18.97;53.33
23953;BME280;12163;49.316;6.092;2023-08-08T09:00:44;99519.06;;;19.08;52.79
23953;BME280;12163;49.316;6.092;2023-08-08T09:03:13;99507.72;;;19.18;53.18
23953;BME280;12163;49.316;6.092;2023-08-08T09:05:41;99509.09;;;19.36;52.61
23953;BME280;12163;49.316;6.092;2023-08-08T09:08:08;99517.16;;;19.57;52.04
23953;BME280;12163;49.316;6.092;2023-08-08T09:10:38;99519.31;;;19.63;49.89
23953;BME280;12163;49.316;6.092;2023-08-08T09:13:05;99518.19;;;19.64;50.50
23953;BME280;12163;49.316;6.092;2023-08-08T09:15:32;99505.38;;;19.68;49.62
23953;BME280;12163;49.316;6.092;2023-08-08T09:18:00;99520.78;;;19.73;50.27
23953;BME280;12163;49.316;6.092;2023-08-08T09:20:27;99515.19;;;19.81;50.83
23953;BME280;12163;49.316;6.092;2023-08-08T09:22:57;99498.81;;;19.97;50.25
23953;BME280;12163;49.316;6.092;2023-08-08T09:25:23;99500.63;;;20.05;49.05
23953;BME280;12163;49.316;6.092;2023-08-08T09:27:51;99500.28;;;20.06;49.56
23953;BME280;12163;49.316;6.092;2023-08-08T09:30:20;99493.59;;;20.19;49.13
23953;BME280;12163;49.316;6.092;2023-08-08T09:32:47;99486.03;;;20.28;48.87
23953;BME280;12163;49.316;6.092;2023-08-08T09:35:14;99483.69;;;20.42;47.87
23953;BME280;12163;49.316;6.092;2023-08-08T09:37:41;99471.59;;;20.43;48.25
23953;BME280;12163;49.316;6.092;2023-08-08T09:40:09;99486.44;;;20.42;47.38
23953;BME280;12163;49.316;6.092;2023-08-08T09:42:40;99486.44;;;20.42;47.67
23953;BME280;12163;49.316;6.092;2023-08-08T09:45:08;99488.69;;;20.40;46.77
23953;BME280;12163;49.316;6.092;2023-08-08T09:47:37;99484.38;;;20.39;47.36
23953;BME280;12163;49.316;6.092;2023-08-08T09:50:04;99485.03;;;20.48;47.68
23953;BME280;12163;49.316;6.092;2023-08-08T09:52:33;99491.56;;;20.59;47.75
23953;BME280;12163;49.316;6.092;2023-08-08T09:55:01;99479.66;;;20.67;47.82
23953;BME280;12163;49.316;6.092;2023-08-08T09:57:28;99474.06;;;20.79;47.24
23953;BME280;12163;49.316;6.092;2023-08-08T09:59:55;99477.22;;;20.93;46.03
23953;BME280;12163;49.316;6.092;2023-08-08T10:02:22;99482.41;;;20.98;44.78
23953;BME280;12163;49.316;6.092;2023-08-08T10:04:49;99471.19;;;21.03;45.22
23953;BME280;12163;49.316;6.092;2023-08-08T10:07:17;99468.69;;;21.13;45.52
23953;BME280;12163;49.316;6.092;2023-08-08T10:09:43;99474.69;;;21.34;45.27
23953;BME280;12163;49.316;6.092;2023-08-08T10:12:11;99459.31;;;21.49;44.89
23953;BME280;12163;49.316;6.092;2023-08-08T10:14:42;99465.75;;;21.56;44.52
23953;BME280;12163;49.316;6.092;2023-08-08T10:17:13;99473.47;;;21.51;44.17
23953;BME280;12163;49.316;6.092;2023-08-08T10:19:50;99469.06;;;21.62;45.03
23953;BME280;12163;49.316;6.092;2023-08-08T10:22:20;99467.19;;;21.85;44.12
23953;BME280;12163;49.316;6.092;2023-08-08T10:24:51;99456.34;;;22.11;44.00
23953;BME280;12163;49.316;6.092;2023-08-08T10:27:35;99459.94;;;22.15;43.36
23953;BME280;12163;49.316;6.092;2023-08-08T10:30:06;99467.00;;;22.12;44.10
23953;BME280;12163;49.316;6.092;2023-08-08T10:32:42;99461.53;;;22.16;44.27
23953;BME280;12163;49.316;6.092;2023-08-08T10:35:10;99467.81;;;22.35;44.22
23953;BME280;12163;49.316;6.092;2023-08-08T10:37:38;99460.34;;;22.35;43.43
23953;BME280;12163;49.316;6.092;2023-08-08T10:40:06;99462.84;;;22.22;44.00
23953;BME280;12163;49.316;6.092;2023-08-08T10:42:44;99456.03;;;22.16;43.94
23953;BME280;12163;49.316;6.092;2023-08-08T10:45:13;99464.94;;;22.28;44.51
23953;BME280;12163;49.316;6.092;2023-08-08T10:47:41;99467.75;;;22.31;44.18
23953;BME280;12163;49.316;6.092;2023-08-08T10:55:20;99468.19;;;22.33;44.49
23953;BME280;12163;49.316;6.092;2023-08-08T11:00:25;99462.41;;;22.38;44.22
23953;BME280;12163;49.316;6.092;2023-08-08T11:02:53;99457.59;;;22.54;44.06
23953;BME280;12163;49.316;6.092;2023-08-08T11:05:24;99450.50;;;22.53;44.47
23953;BME280;12163;49.316;6.092;2023-08-08T11:07:52;99458.91;;;22.41;44.63
23953;BME280;12163;49.316;6.092;2023-08-08T11:10:21;99454.84;;;22.35;45.26
23953;BME280;12163;49.316;6.092;2023-08-08T11:12:56;99457.78;;;22.24;44.83
23953;BME280;12163;49.316;6.092;2023-08-08T11:15:23;99451.28;;;22.13;45.63
23953;BME280;12163;49.316;6.092;2023-08-08T11:17:49;99442.38;;;22.19;45.59
23953;BME280;12163;49.316;6.092;2023-08-08T11:20:16;99453.03;;;22.21;45.95
23953;BME280;12163;49.316;6.092;2023-08-08T11:22:43;99452.44;;;22.12;45.57
23953;BME280;12163;49.316;6.092;2023-08-08T11:25:10;99447.66;;;21.90;46.25
23953;BME280;12163;49.316;6.092;2023-08-08T11:27:36;99443.53;;;21.80;46.15
23953;BME280;12163;49.316;6.092;2023-08-08T11:30:07;99444.91;;;21.71;46.40
23953;BME280;12163;49.316;6.092;2023-08-08T11:32:36;99431.47;;;21.66;46.91
23953;BME280;12163;49.316;6.092;2023-08-08T11:35:04;99437.22;;;21.61;47.80
23953;BME280;12163;49.316;6.092;2023-08-08T11:37:31;99442.06;;;21.48;47.81
23953;BME280;12163;49.316;6.092;2023-08-08T11:39:57;99435.81;;;21.32;48.43
23953;BME280;12163;49.316;6.092;2023-08-08T11:42:24;99441.06;;;21.22;48.91
23953;BME280;12163;49.316;6.092;2023-08-08T11:44:51;99448.25;;;21.11;48.54
23953;BME280;12163;49.316;6.092;2023-08-08T11:47:24;99447.19;;;21.00;49.08
23953;BME280;12163;49.316;6.092;2023-08-08T11:49:51;99449.34;;;20.91;49.65
23953;BME280;12163;49.316;6.092;2023-08-08T11:52:19;99444.44;;;21.00;49.50
23953;BME280;12163;49.316;6.092;2023-08-08T11:54:51;99445.66;;;21.18;49.39
23953;BME280;12163;49.316;6.092;2023-08-08T11:57:18;99438.94;;;21.50;49.13
23953;BME280;12163;49.316;6.092;2023-08-08T11:59:45;99436.31;;;21.72;48.41
23953;BME280;12163;49.316;6.092;2023-08-08T12:02:14;99431.78;;;21.99;47.28
23953;BME280;12163;49.316;6.092;2023-08-08T12:04:46;99438.13;;;22.22;47.41
23953;BME280;12163;49.316;6.092;2023-08-08T12:07:13;99433.69;;;22.36;46.64
23953;BME280;12163;49.316;6.092;2023-08-08T12:09:40;99431.00;;;22.39;46.68
23953;BME280;12163;49.316;6.092;2023-08-08T12:12:08;99428.19;;;22.58;46.53
23953;BME280;12163;49.316;6.092;2023-08-08T12:14:41;99414.81;;;22.79;45.27
23953;BME280;12163;49.316;6.092;2023-08-08T12:17:27;99435.44;;;22.66;45.86
23953;BME280;12163;49.316;6.092;2023-08-08T12:19:53;99421.69;;;22.66;46.25
23953;BME280;12163;49.316;6.092;2023-08-08T12:22:20;99418.19;;;22.69;45.93
23953;BME280;12163;49.316;6.092;2023-08-08T12:24:47;99412.38;;;22.74;45.60
23953;BME280;12163;49.316;6.092;2023-08-08T12:27:14;99411.63;;;22.77;46.05
23953;BME280;12163;49.316;6.092;2023-08-08T12:29:41;99411.22;;;22.75;45.14
23953;BME280;12163;49.316;6.092;2023-08-08T12:32:07;99418.50;;;22.64;45.72
23953;BME280;12163;49.316;6.092;2023-08-08T12:34:35;99408.63;;;22.63;45.94
23953;BME280;12163;49.316;6.092;2023-08-08T12:37:02;99403.59;;;22.65;45.94
23953;BME280;12163;49.316;6.092;2023-08-08T12:39:29;99400.38;;;22.63;46.32
23953;BME280;12163;49.316;6.092;2023-08-08T12:41:56;99400.75;;;22.62;45.73
23953;BME280;12163;49.316;6.092;2023-08-08T12:44:23;99413.34;;;22.40;46.19
23953;BME280;12163;49.316;6.092;2023-08-08T12:46:49;99412.75;;;22.31;46.82
23953;BME280;12163;49.316;6.092;2023-08-08T12:49:16;99407.69;;;22.33;47.16
23953;BME280;12163;49.316;6.092;2023-08-08T12:51:43;99401.69;;;22.47;47.30
23953;BME280;12163;49.316;6.092;2023-08-08T12:54:09;99395.13;;;22.77;46.90
23953;BME280;12163;49.316;6.092;2023-08-08T12:56:36;99393.97;;;23.04;46.48
23953;BME280;12163;49.316;6.092;2023-08-08T12:59:03;99384.03;;;23.22;45.55
23953;BME280;12163;49.316;6.092;2023-08-08T13:01:29;99389.56;;;23.22;46.01
23953;BME280;12163;49.316;6.092;2023-08-08T13:03:56;99402.66;;;23.06;46.32
23953;BME280;12163;49.316;6.092;2023-08-08T13:06:43;99395.13;;;22.77;46.36
23953;BME280;12163;49.316;6.092;2023-08-08T13:09:09;99406.34;;;22.65;47.28